Darstellungsparameter: Aktuell verwendete Einstellungen:
Skalierung der Graphiken ... ?
xyx+y,   Skalierungsfaktor:      Skalierung: Modus: x, Faktor: 1
Darstellungszeitraum ... ?
Vom - - bis: - -   Zeitraum: 17.05.2010 - 23.05.2010
Min/Max/Avg-Anzeige ... ?
Zeige MMA aktuell
Zeige MMA Monat
Zeige MMA alles
Zeige --A aktuell
Zeige --A Monat
Zeige --A alles
Keine MMA-Anzeige
MMA:
Average (ber die Originaldaten)
MMA-Basis: 17.05.2010 - 23.05.2010
Quicknavigation für Darstellung... ?
Tage:      1T, 2T, 3T, 5T -1T -2T -3T -5T +1T +2T +3T +5T
Wochen: 1W, 2W, 3W -1W -2W -3W +1W +2W +3W
Monate: 1M, 3M, 6M -1M -3M -6M +1M +3M +6M
Jahre:    1J, 3J, 5J, 10J -1J -3J -5J -10J +1J +3J +5J +10J
Nutze für die Darstellung ... ?
Originaldaten oder Mittelwerte auf ...
Stundenbasis Tagesbasis Wochenbasis
Monatsbasis Jahresbasis      Datenbasis: Original-Daten
Darstellen als:
Statistik (Auto) Statistik J:M      Darstellung:
Zur Graphik,    zurück zur Übersicht aller Sensoren.
 
Tabellarische Datenbersicht: ?
 
Sensor: Nr:Datum:Temp:Abs-Feuchte:Windchill:Wind:
Aussen-T/F 1 17-05-2010 00:09:03 10.3 C 6.03 g/m*3 10.3 C 0 km/h
2 17-05-2010 00:21:03 10.4 C 5.98 g/m*3 10.4 C 0 km/h
3 17-05-2010 00:33:03 10 C 5.92 g/m*3 10 C 0 km/h
4 17-05-2010 00:45:03 10 C 5.92 g/m*3 10 C 0 km/h
5 17-05-2010 00:57:03 9.9 C 5.98 g/m*3 9.9 C 0 km/h
6 17-05-2010 01:09:03 9.8 C 5.85 g/m*3 9.8 C 0 km/h
7 17-05-2010 01:21:04 9.7 C 5.99 g/m*3 9.7 C 0 km/h
8 17-05-2010 01:33:04 9.3 C 6.02 g/m*3 9.3 C 0 km/h
9 17-05-2010 01:45:04 9 C 5.99 g/m*3 9 C 0 km/h
10 17-05-2010 01:57:04 9 C 6.08 g/m*3 9 C 0 km/h
11 17-05-2010 02:09:04 8.7 C 6.14 g/m*3 8.7 C 0 km/h
12 17-05-2010 02:21:04 8.6 C 6.1 g/m*3 8.6 C 0 km/h
13 17-05-2010 02:33:04 8.6 C 6.19 g/m*3 8.6 C 0 km/h
14 17-05-2010 02:45:04 8.5 C 6.15 g/m*3 8.5 C 0 km/h
15 17-05-2010 02:57:04 8.4 C 6.11 g/m*3 8.4 C 0 km/h
16 17-05-2010 03:09:04 8.1 C 6.07 g/m*3 8.1 C 0 km/h
17 17-05-2010 03:21:04 7.8 C 6.12 g/m*3 7.8 C 0 km/h
18 17-05-2010 03:33:04 7.6 C 6.12 g/m*3 7.6 C 0 km/h
19 17-05-2010 03:45:04 7.4 C 6.12 g/m*3 7.4 C 0 km/h
20 17-05-2010 03:57:04 7.3 C 6.16 g/m*3 7.3 C 0 km/h
21 17-05-2010 04:09:04 7.2 C 6.12 g/m*3 7.2 C 0 km/h
22 17-05-2010 04:21:04 7.1 C 6.08 g/m*3 7.1 C 0 km/h
23 17-05-2010 04:33:04 7 C 6.04 g/m*3 7 C 0 km/h
24 17-05-2010 04:45:04 6.8 C 6.12 g/m*3 6.8 C 0 km/h
25 17-05-2010 04:57:04 6.7 C 6.15 g/m*3 6.7 C 0 km/h
Sensor: Nr:Datum:Temp:Abs-Feuchte:Windchill:Wind:
Aussen-T/F 26 17-05-2010 05:09:04 6.5 C 6.15 g/m*3 6.5 C 0 km/h
27 17-05-2010 05:21:04 6.3 C 6.07 g/m*3 6.3 C 0 km/h
28 17-05-2010 05:33:04 6.2 C 6.1 g/m*3 6.2 C 0 km/h
29 17-05-2010 05:45:05 6.1 C 6.06 g/m*3 6.1 C 0 km/h
30 17-05-2010 05:57:05 6 C 6.02 g/m*3 6 C 0 km/h
31 17-05-2010 06:09:05 6 C 6.1 g/m*3 6 C 0 km/h
32 17-05-2010 06:21:05 6 C 6.02 g/m*3 6 C 0 km/h
33 17-05-2010 06:33:03 6 C 6.02 g/m*3 6 C 0 km/h
34 17-05-2010 06:45:02 5.9 C 6.06 g/m*3 5.9 C 0 km/h
35 17-05-2010 06:57:02 6.1 C 6.06 g/m*3 6.1 C 0 km/h
36 17-05-2010 07:09:01 6.3 C 6.14 g/m*3 6.3 C 0 km/h
37 17-05-2010 07:21:02 6.5 C 6.15 g/m*3 6.5 C 0 km/h
38 17-05-2010 07:33:01 7.2 C 6.2 g/m*3 7.2 C 0 km/h
39 17-05-2010 07:45:02 7.4 C 6.2 g/m*3 7.4 C 0 km/h
40 17-05-2010 07:57:02 8 C 6.2 g/m*3 8 C 0 km/h
41 17-05-2010 08:09:01 8.3 C 6.24 g/m*3 8.3 C 0 km/h
42 17-05-2010 08:21:02 8.8 C 6.35 g/m*3 8.8 C 0 km/h
43 17-05-2010 08:33:02 9.2 C 6.25 g/m*3 9.2 C 0 km/h
44 17-05-2010 08:45:02 10.1 C 6.24 g/m*3 10.1 C 0 km/h
45 17-05-2010 08:57:02 10.7 C 6.29 g/m*3 10.7 C 0 km/h
46 17-05-2010 09:09:02 11.2 C 6.28 g/m*3 11.2 C 0 km/h
47 17-05-2010 09:21:02 11.6 C 6.44 g/m*3 11.6 C 0 km/h
48 17-05-2010 09:33:02 12.2 C 6.47 g/m*3 12.2 C 0 km/h
49 17-05-2010 09:45:02 12.2 C 6.47 g/m*3 12.2 C 0 km/h
50 17-05-2010 09:57:02 12.2 C 6.47 g/m*3 12.2 C 0 km/h
Sensor: Nr:Datum:Temp:Abs-Feuchte:Windchill:Wind:
Aussen-T/F 51 17-05-2010 10:09:02 13 C 6.35 g/m*3 13 C 0 km/h
52 17-05-2010 10:21:02 13.2 C 6.2 g/m*3 13.2 C 0 km/h
53 17-05-2010 10:33:03 13.7 C 6.39 g/m*3 13.7 C 0 km/h
54 17-05-2010 10:45:02 14.1 C 6.55 g/m*3 14.1 C 0 km/h
55 17-05-2010 10:57:03 14.5 C 6.47 g/m*3 14.5 C 0 km/h
56 17-05-2010 11:09:01 14.1 C 6.55 g/m*3 14.1 C 0 km/h
57 17-05-2010 11:21:02 13.9 C 6.83 g/m*3 13.9 C 0 km/h
58 17-05-2010 11:33:02 13.5 C 6.67 g/m*3 13.5 C 0 km/h
59 17-05-2010 11:45:02 13.5 C 7.13 g/m*3 13.5 C 0 km/h
60 17-05-2010 11:57:02 13 C 7.14 g/m*3 13 C 0 km/h
61 17-05-2010 12:09:02 13.2 C 7.23 g/m*3 13.2 C 0 km/h
62 17-05-2010 12:21:02 13 C 7.48 g/m*3 13 C 0 km/h
63 17-05-2010 12:33:02 13.2 C 7.69 g/m*3 13.2 C 0 km/h
64 17-05-2010 12:45:01 14.2 C 7.45 g/m*3 14.2 C 0 km/h
65 17-05-2010 12:57:01 15.8 C 7.27 g/m*3 15.8 C 0 km/h
66 17-05-2010 13:09:02 15.4 C 6.7 g/m*3 15.4 C 0 km/h
67 17-05-2010 13:21:01 16.9 C 6.9 g/m*3 16.9 C 0 km/h
68 17-05-2010 13:33:01 18.1 C 6.49 g/m*3 18.1 C 0 km/h
69 17-05-2010 13:45:01 17.7 C 6.04 g/m*3 17.7 C 0 km/h
70 17-05-2010 13:57:01 15 C 7.05 g/m*3 15 C 0 km/h
71 17-05-2010 14:09:02 15.6 C 7.05 g/m*3 15.6 C 0 km/h
72 17-05-2010 14:21:01 15.5 C 7.4 g/m*3 15.5 C 0 km/h
73 17-05-2010 14:33:01 17.1 C 6.7 g/m*3 17.1 C 0 km/h
74 17-05-2010 14:45:01 16.5 C 6.46 g/m*3 16.5 C 0 km/h
75 17-05-2010 14:57:01 14.7 C 7.18 g/m*3 14.7 C 0 km/h
Sensor: Nr:Datum:Temp:Abs-Feuchte:Windchill:Wind:
Aussen-T/F 76 17-05-2010 15:09:02 12.6 C 8.3 g/m*3 12.6 C 0 km/h
77 17-05-2010 15:21:02 12.6 C 9.07 g/m*3 12.6 C 0 km/h
78 17-05-2010 15:33:01 12.9 C 9.58 g/m*3 12.9 C 0 km/h
79 17-05-2010 15:45:02 12.7 C 9.57 g/m*3 12.7 C 0 km/h
80 17-05-2010 15:57:02 12.5 C 9.57 g/m*3 12.5 C 0 km/h
81 17-05-2010 16:09:01 13.3 C 10.05 g/m*3 13.3 C 0 km/h
82 17-05-2010 16:21:02 13.8 C 9.89 g/m*3 13.8 C 0 km/h
83 17-05-2010 16:33:01 13.7 C 9.24 g/m*3 13.7 C 0 km/h
84 17-05-2010 16:45:02 13.1 C 8.9 g/m*3 13.1 C 0 km/h
85 17-05-2010 16:57:02 13.3 C 9.24 g/m*3 13.3 C 0 km/h
86 17-05-2010 17:09:01 13.8 C 9.29 g/m*3 13.8 C 0 km/h
87 17-05-2010 17:21:01 14.1 C 8.98 g/m*3 14.1 C 0 km/h
88 17-05-2010 17:33:01 13.9 C 8.99 g/m*3 13.9 C 0 km/h
89 17-05-2010 17:45:02 13.7 C 8.64 g/m*3 13.7 C 0 km/h
90 17-05-2010 17:57:02 13.8 C 8.7 g/m*3 13.8 C 0 km/h
91 17-05-2010 18:09:02 13.6 C 8.47 g/m*3 13.6 C 0 km/h
92 17-05-2010 18:21:02 14.4 C 8.9 g/m*3 14.4 C 0 km/h
93 17-05-2010 18:33:02 11.8 C 6.63 g/m*3 11.8 C 0 km/h
94 17-05-2010 18:45:01 10.7 C 6.88 g/m*3 10.7 C 0 km/h
95 17-05-2010 18:57:01 10 C 7.24 g/m*3 10 C 0 km/h
96 17-05-2010 19:09:02 9.8 C 7.7 g/m*3 9.8 C 0 km/h
97 17-05-2010 19:21:01 10.3 C 7.85 g/m*3 10.3 C 0 km/h
98 17-05-2010 19:33:02 10.3 C 7.95 g/m*3 10.3 C 0 km/h
99 17-05-2010 19:45:02 9.8 C 7.7 g/m*3 9.8 C 0 km/h
100 17-05-2010 19:57:02 10 C 7.8 g/m*3 10 C 0 km/h
Sensor: Nr:Datum:Temp:Abs-Feuchte:Windchill:Wind:
Aussen-T/F 101 17-05-2010 20:09:02 9.8 C 7.89 g/m*3 9.8 C 0 km/h
102 17-05-2010 20:21:01 9.5 C 7.83 g/m*3 9.5 C 0 km/h
103 17-05-2010 20:33:02 9.5 C 7.92 g/m*3 9.5 C 0 km/h
104 17-05-2010 20:45:02 9.4 C 7.87 g/m*3 9.4 C 0 km/h
105 17-05-2010 20:57:02 9.1 C 7.81 g/m*3 9.1 C 0 km/h
106 17-05-2010 21:09:02 9 C 7.76 g/m*3 9 C 0 km/h
107 17-05-2010 21:21:02 9 C 7.85 g/m*3 9 C 0 km/h
108 17-05-2010 21:33:02 9 C 7.85 g/m*3 9 C 0 km/h
109 17-05-2010 21:45:02 8.7 C 7.78 g/m*3 8.7 C 0 km/h
110 17-05-2010 21:57:02 8.7 C 7.87 g/m*3 8.7 C 0 km/h
111 17-05-2010 22:09:02 8.3 C 7.67 g/m*3 8.3 C 0 km/h
112 17-05-2010 22:21:02 8.6 C 7.82 g/m*3 8.6 C 0 km/h
113 17-05-2010 22:34:03 8.7 C 7.96 g/m*3 8.7 C 0 km/h
114 17-05-2010 22:46:03 8.5 C 7.85 g/m*3 8.5 C 0 km/h
115 17-05-2010 22:58:03 8.4 C 7.8 g/m*3 8.4 C 0 km/h
116 17-05-2010 23:10:04 8.1 C 7.57 g/m*3 8.1 C 0 km/h
117 17-05-2010 23:22:04 7.8 C 7.51 g/m*3 7.8 C 0 km/h
118 17-05-2010 23:34:04 7.8 C 7.51 g/m*3 7.8 C 0 km/h
119 17-05-2010 23:46:04 7.7 C 7.54 g/m*3 7.7 C 0 km/h
120 17-05-2010 23:58:04 7.6 C 7.49 g/m*3 7.6 C 0 km/h
121 18-05-2010 00:10:04 7.4 C 7.32 g/m*3 7.4 C 0 km/h
122 18-05-2010 00:22:04 7.1 C 7.18 g/m*3 7.1 C 0 km/h
123 18-05-2010 00:34:04 7 C 7.13 g/m*3 7 C 0 km/h
124 18-05-2010 00:46:04 7 C 7.13 g/m*3 7 C 0 km/h
125 18-05-2010 00:58:04 6.9 C 7.16 g/m*3 6.9 C 0 km/h
Sensor: Nr:Datum:Temp:Abs-Feuchte:Windchill:Wind:
Aussen-T/F 126 18-05-2010 01:10:04 6.8 C 7.11 g/m*3 6.8 C 0 km/h
127 18-05-2010 01:22:04 6.6 C 7.02 g/m*3 6.6 C 0 km/h
128 18-05-2010 01:34:04 6.4 C 6.85 g/m*3 6.4 C 0 km/h
129 18-05-2010 01:46:04 6.3 C 6.88 g/m*3 6.3 C 0 km/h
130 18-05-2010 01:58:04 6.2 C 6.84 g/m*3 6.2 C 0 km/h
131 18-05-2010 02:10:04 6.3 C 6.88 g/m*3 6.3 C 0 km/h
132 18-05-2010 02:22:04 6.2 C 6.84 g/m*3 6.2 C 0 km/h
133 18-05-2010 02:34:04 6.1 C 6.79 g/m*3 6.1 C 0 km/h
134 18-05-2010 02:46:04 6 C 6.75 g/m*3 6 C 0 km/h
135 18-05-2010 02:58:04 5.9 C 6.71 g/m*3 5.9 C 0 km/h
136 18-05-2010 03:10:04 5.8 C 6.66 g/m*3 5.8 C 0 km/h
137 18-05-2010 03:22:04 5.7 C 6.62 g/m*3 5.7 C 0 km/h
138 18-05-2010 03:34:05 5.7 C 6.69 g/m*3 5.7 C 0 km/h
139 18-05-2010 03:46:05 5.8 C 6.73 g/m*3 5.8 C 0 km/h
140 18-05-2010 03:58:05 6 C 6.75 g/m*3 6 C 0 km/h
141 18-05-2010 04:10:05 6.3 C 6.96 g/m*3 6.3 C 0 km/h
142 18-05-2010 04:22:05 6.3 C 6.96 g/m*3 6.3 C 0 km/h
143 18-05-2010 04:34:05 6.3 C 6.96 g/m*3 6.3 C 0 km/h
144 18-05-2010 04:46:05 6.2 C 6.91 g/m*3 6.2 C 0 km/h
145 18-05-2010 04:58:05 6.3 C 6.88 g/m*3 6.3 C 0 km/h
146 18-05-2010 05:10:05 6.4 C 7 g/m*3 6.4 C 0 km/h
147 18-05-2010 05:22:05 6.5 C 7.05 g/m*3 6.5 C 0 km/h
148 18-05-2010 05:34:05 6.4 C 6.93 g/m*3 6.4 C 0 km/h
149 18-05-2010 05:46:05 6.5 C 6.97 g/m*3 6.5 C 0 km/h
150 18-05-2010 05:58:05 6.7 C 7.07 g/m*3 6.7 C 0 km/h
Sensor: Nr:Datum:Temp:Abs-Feuchte:Windchill:Wind:
Aussen-T/F 151 18-05-2010 06:10:05 6.9 C 7.16 g/m*3 6.9 C 0 km/h
152 18-05-2010 06:22:05 6.9 C 7.16 g/m*3 6.9 C 0 km/h
153 18-05-2010 06:34:05 7.1 C 7.18 g/m*3 7.1 C 0 km/h
154 18-05-2010 06:46:05 7.3 C 7.27 g/m*3 7.3 C 0 km/h
155 18-05-2010 06:58:05 7.5 C 7.28 g/m*3 7.5 C 0 km/h
156 18-05-2010 07:10:04 7.9 C 7.47 g/m*3 7.9 C 0 km/h
157 18-05-2010 07:22:03 7.9 C 7.39 g/m*3 7.9 C 0 km/h
158 18-05-2010 07:34:03 8 C 7.36 g/m*3 8 C 0 km/h
159 18-05-2010 07:46:01 8.5 C 7.6 g/m*3 8.5 C 0 km/h
160 18-05-2010 07:58:01 8.7 C 7.52 g/m*3 8.7 C 0 km/h
161 18-05-2010 08:10:02 9 C 7.23 g/m*3 9 C 0 km/h
162 18-05-2010 08:22:01 8.7 C 6.66 g/m*3 8.7 C 0 km/h
163 18-05-2010 08:34:02 9 C 6.44 g/m*3 9 C 0 km/h
164 18-05-2010 08:46:02 9.3 C 6.56 g/m*3 9.3 C 0 km/h
165 18-05-2010 08:58:02 9.2 C 6.52 g/m*3 9.2 C 0 km/h
166 18-05-2010 09:10:01 9.3 C 6.47 g/m*3 9.3 C 0 km/h
167 18-05-2010 09:22:02 9.6 C 6.41 g/m*3 9.6 C 0 km/h
168 18-05-2010 09:34:01 9.9 C 6.35 g/m*3 9.9 C 0 km/h
169 18-05-2010 09:46:02 9.7 C 6.08 g/m*3 9.7 C 0 km/h
170 18-05-2010 09:58:02 10 C 6.01 g/m*3 10 C 0 km/h
171 18-05-2010 10:10:01 10.5 C 6.01 g/m*3 10.5 C 0 km/h
172 18-05-2010 10:22:01 10.5 C 6.01 g/m*3 10.5 C 0 km/h
173 18-05-2010 10:34:02 10.6 C 5.66 g/m*3 10.6 C 0 km/h
174 18-05-2010 10:46:02 11.2 C 5.57 g/m*3 11.2 C 0 km/h
175 18-05-2010 10:58:02 11.4 C 5.65 g/m*3 11.4 C 0 km/h
Sensor: Nr:Datum:Temp:Abs-Feuchte:Windchill:Wind:
Aussen-T/F 176 18-05-2010 11:10:02 12.5 C 5.61 g/m*3 12.5 C 0 km/h
177 18-05-2010 11:22:02 12.4 C 5.24 g/m*3 12.4 C 0 km/h
178 18-05-2010 11:34:02 12.1 C 5.25 g/m*3 12.1 C 0 km/h
179 18-05-2010 11:46:02 13 C 5.22 g/m*3 13 C 0 km/h
180 18-05-2010 11:58:02 13.7 C 5.21 g/m*3 13.7 C 0 km/h
181 18-05-2010 12:10:03 13.7 C 4.86 g/m*3 13.7 C 0 km/h
182 18-05-2010 12:22:02 12.7 C 5.12 g/m*3 12.7 C 0 km/h
183 18-05-2010 12:34:02 14.2 C 5.13 g/m*3 14.2 C 0 km/h
184 18-05-2010 12:46:01 14.4 C 4.82 g/m*3 14.4 C 0 km/h
185 18-05-2010 12:58:01 15.2 C 4.67 g/m*3 15.2 C 0 km/h
186 18-05-2010 13:10:02 16.8 C 5 g/m*3 16.8 C 0 km/h
187 18-05-2010 13:22:01 16.9 C 4.46 g/m*3 16.9 C 0 km/h
188 18-05-2010 13:34:01 16.5 C 4.49 g/m*3 16.5 C 0 km/h
189 18-05-2010 13:46:01 17.8 C 4.4 g/m*3 17.8 C 0 km/h
190 18-05-2010 13:58:01 15.8 C 4.04 g/m*3 15.8 C 0 km/h
191 18-05-2010 14:10:02 15.1 C 4.13 g/m*3 15.1 C 0 km/h
192 18-05-2010 14:22:01 15.8 C 4.17 g/m*3 15.8 C 0 km/h
193 18-05-2010 14:34:01 15 C 4.23 g/m*3 15 C 0 km/h
194 18-05-2010 14:46:01 15.8 C 4.31 g/m*3 15.8 C 0 km/h
195 18-05-2010 14:58:01 16.3 C 4.16 g/m*3 16.3 C 0 km/h
196 18-05-2010 15:10:02 16.4 C 4.47 g/m*3 16.4 C 0 km/h
197 18-05-2010 15:22:02 16.5 C 4.21 g/m*3 16.5 C 0 km/h
198 18-05-2010 15:34:01 16.6 C 3.96 g/m*3 16.6 C 0 km/h
199 18-05-2010 15:46:02 16 C 3.95 g/m*3 16 C 0 km/h
200 18-05-2010 15:58:02 16.9 C 4.17 g/m*3 16.9 C 0 km/h
Sensor: Nr:Datum:Temp:Abs-Feuchte:Windchill:Wind:
Aussen-T/F 201 18-05-2010 16:10:01 18.2 C 4.04 g/m*3 18.2 C 0 km/h
202 18-05-2010 16:22:02 18.2 C 3.89 g/m*3 18.2 C 0 km/h
203 18-05-2010 16:34:01 17.9 C 3.05 g/m*3 17.9 C 0 km/h
204 18-05-2010 16:46:02 17.6 C 3.3 g/m*3 17.6 C 0 km/h
205 18-05-2010 16:58:02 16.8 C 3.29 g/m*3 16.8 C 0 km/h
206 18-05-2010 17:10:02 16.6 C 3.53 g/m*3 16.6 C 0 km/h
207 18-05-2010 17:22:02 17.7 C 3.77 g/m*3 17.7 C 0 km/h
208 18-05-2010 17:34:02 17.5 C 4.03 g/m*3 17.5 C 0 km/h
209 18-05-2010 17:46:02 16.8 C 3.86 g/m*3 16.8 C 0 km/h
210 18-05-2010 17:58:02 17.2 C 3.66 g/m*3 17.2 C 0 km/h
211 18-05-2010 18:10:01 18.2 C 3.57 g/m*3 18.2 C 0 km/h
212 18-05-2010 18:22:02 18.2 C 3.73 g/m*3 18.2 C 0 km/h
213 18-05-2010 18:34:02 16.9 C 3.88 g/m*3 16.9 C 0 km/h
214 18-05-2010 18:46:02 16.2 C 4.14 g/m*3 16.2 C 0 km/h
215 18-05-2010 18:58:02 16.4 C 4.33 g/m*3 16.4 C 0 km/h
216 18-05-2010 19:10:02 15.7 C 4.42 g/m*3 15.7 C 0 km/h
217 18-05-2010 19:22:02 16.1 C 4.25 g/m*3 16.1 C 0 km/h
218 18-05-2010 19:34:03 15.3 C 4.31 g/m*3 15.3 C 0 km/h
219 18-05-2010 19:46:02 14.8 C 4.56 g/m*3 14.8 C 0 km/h
220 18-05-2010 19:58:02 14.7 C 4.66 g/m*3 14.7 C 0 km/h
221 18-05-2010 20:10:02 14.5 C 4.6 g/m*3 14.5 C 0 km/h
222 18-05-2010 20:22:01 14.4 C 4.94 g/m*3 14.4 C 0 km/h
223 18-05-2010 20:34:02 14.5 C 4.85 g/m*3 14.5 C 0 km/h
224 18-05-2010 20:46:02 14.1 C 4.85 g/m*3 14.1 C 0 km/h
225 18-05-2010 20:58:02 13.8 C 4.89 g/m*3 13.8 C 0 km/h
Sensor: Nr:Datum:Temp:Abs-Feuchte:Windchill:Wind:
Aussen-T/F 226 18-05-2010 21:10:02 13.5 C 5.03 g/m*3 13.5 C 0 km/h
227 18-05-2010 21:22:02 13.1 C 4.79 g/m*3 13.1 C 0 km/h
228 18-05-2010 21:34:02 12.6 C 4.76 g/m*3 12.6 C 0 km/h
229 18-05-2010 21:46:02 12.4 C 4.48 g/m*3 12.4 C 0 km/h
230 18-05-2010 21:58:02 12.4 C 4.37 g/m*3 12.4 C 0 km/h
231 18-05-2010 22:10:02 12 C 4.37 g/m*3 12 C 0 km/h
232 18-05-2010 22:22:02 11.7 C 4.39 g/m*3 11.7 C 0 km/h
233 18-05-2010 22:35:02 11.5 C 4.44 g/m*3 11.5 C 0 km/h
234 18-05-2010 22:47:02 11.2 C 4.66 g/m*3 11.2 C 0 km/h
235 18-05-2010 22:59:02 10.8 C 4.94 g/m*3 10.8 C 0 km/h
236 18-05-2010 23:11:02 10.5 C 5.04 g/m*3 10.5 C 0 km/h
237 18-05-2010 23:23:02 10.2 C 5.33 g/m*3 10.2 C 0 km/h
238 18-05-2010 23:35:03 9.9 C 5.51 g/m*3 9.9 C 0 km/h
239 18-05-2010 23:47:03 9.7 C 5.53 g/m*3 9.7 C 0 km/h
240 18-05-2010 23:59:03 9.6 C 5.59 g/m*3 9.6 C 0 km/h
241 19-05-2010 00:11:03 9.4 C 5.79 g/m*3 9.4 C 0 km/h
242 19-05-2010 00:23:03 9.4 C 5.79 g/m*3 9.4 C 0 km/h
243 19-05-2010 00:35:03 9.3 C 5.75 g/m*3 9.3 C 0 km/h
244 19-05-2010 00:47:03 9.3 C 5.75 g/m*3 9.3 C 0 km/h
245 19-05-2010 00:59:03 9.2 C 5.71 g/m*3 9.2 C 0 km/h
246 19-05-2010 01:11:03 9.2 C 5.54 g/m*3 9.2 C 0 km/h
247 19-05-2010 01:23:03 9.3 C 5.39 g/m*3 9.3 C 0 km/h
248 19-05-2010 01:35:03 9.3 C 5.3 g/m*3 9.3 C 0 km/h
249 19-05-2010 01:47:03 9.3 C 5.3 g/m*3 9.3 C 0 km/h
250 19-05-2010 01:59:03 9.3 C 5.3 g/m*3 9.3 C 0 km/h
Sensor: Nr:Datum:Temp:Abs-Feuchte:Windchill:Wind:
Aussen-T/F 251 19-05-2010 02:11:03 9.2 C 5.27 g/m*3 9.2 C 0 km/h
252 19-05-2010 02:23:03 9.1 C 5.32 g/m*3 9.1 C 0 km/h
253 19-05-2010 02:35:03 9.2 C 5.36 g/m*3 9.2 C 0 km/h
254 19-05-2010 02:47:03 9 C 5.29 g/m*3 9 C 0 km/h
255 19-05-2010 02:59:03 8.8 C 5.4 g/m*3 8.8 C 0 km/h
256 19-05-2010 03:11:03 8.8 C 5.4 g/m*3 8.8 C 0 km/h
257 19-05-2010 03:23:03 8.8 C 5.31 g/m*3 8.8 C 0 km/h
258 19-05-2010 03:35:03 8.7 C 5.36 g/m*3 8.7 C 0 km/h
259 19-05-2010 03:47:03 8.6 C 5.33 g/m*3 8.6 C 0 km/h
260 19-05-2010 03:59:03 8.5 C 5.38 g/m*3 8.5 C 0 km/h
261 19-05-2010 04:11:04 8.4 C 5.43 g/m*3 8.4 C 0 km/h
262 19-05-2010 04:23:04 8.2 C 5.44 g/m*3 8.2 C 0 km/h
263 19-05-2010 04:35:04 8.1 C 5.49 g/m*3 8.1 C 0 km/h
264 19-05-2010 04:47:04 8.1 C 5.66 g/m*3 8.1 C 0 km/h
265 19-05-2010 04:59:04 8 C 5.7 g/m*3 8 C 0 km/h
266 19-05-2010 05:11:04 8 C 5.7 g/m*3 8 C 0 km/h
267 19-05-2010 05:23:04 7.9 C 5.83 g/m*3 7.9 C 0 km/h
268 19-05-2010 05:35:04 7.9 C 5.91 g/m*3 7.9 C 0 km/h
269 19-05-2010 05:47:04 7.9 C 5.91 g/m*3 7.9 C 0 km/h
270 19-05-2010 05:59:04 7.9 C 5.91 g/m*3 7.9 C 0 km/h
271 19-05-2010 06:11:04 7.8 C 5.96 g/m*3 7.8 C 0 km/h
272 19-05-2010 06:23:04 8 C 5.95 g/m*3 8 C 0 km/h
273 19-05-2010 06:35:04 8.1 C 5.91 g/m*3 8.1 C 0 km/h
274 19-05-2010 06:47:04 8.1 C 5.91 g/m*3 8.1 C 0 km/h
275 19-05-2010 06:59:04 8.2 C 5.95 g/m*3 8.2 C 0 km/h
Sensor: Nr:Datum:Temp:Abs-Feuchte:Windchill:Wind:
Aussen-T/F 276 19-05-2010 07:11:02 8.4 C 6.02 g/m*3 8.4 C 0 km/h
277 19-05-2010 07:23:02 8.5 C 5.89 g/m*3 8.5 C 0 km/h
278 19-05-2010 07:35:02 8.6 C 5.84 g/m*3 8.6 C 0 km/h
279 19-05-2010 07:47:02 8.7 C 5.88 g/m*3 8.7 C 0 km/h
280 19-05-2010 07:59:02 9.1 C 5.86 g/m*3 9.1 C 0 km/h
281 19-05-2010 08:11:02 9.1 C 5.68 g/m*3 9.1 C 0 km/h
282 19-05-2010 08:23:02 9.3 C 5.66 g/m*3 9.3 C 0 km/h
283 19-05-2010 08:35:02 9 C 5.55 g/m*3 9 C 0 km/h
284 19-05-2010 08:47:02 9.1 C 5.59 g/m*3 9.1 C 0 km/h
285 19-05-2010 08:59:02 9.2 C 5.63 g/m*3 9.2 C 0 km/h
286 19-05-2010 09:11:01 8.9 C 5.69 g/m*3 8.9 C 0 km/h
287 19-05-2010 09:23:01 9.1 C 5.77 g/m*3 9.1 C 0 km/h
288 19-05-2010 09:35:01 9.2 C 5.71 g/m*3 9.2 C 0 km/h
289 19-05-2010 09:47:02 9.2 C 5.71 g/m*3 9.2 C 0 km/h
290 19-05-2010 09:59:02 9.5 C 5.73 g/m*3 9.5 C 0 km/h
291 19-05-2010 10:11:02 9.6 C 5.77 g/m*3 9.6 C 0 km/h
292 19-05-2010 10:23:02 9.6 C 5.68 g/m*3 9.6 C 0 km/h
293 19-05-2010 10:35:01 9.8 C 5.75 g/m*3 9.8 C 0 km/h
294 19-05-2010 10:47:02 9.5 C 5.64 g/m*3 9.5 C 0 km/h
295 19-05-2010 10:59:02 9.6 C 5.77 g/m*3 9.6 C 0 km/h
296 19-05-2010 11:11:01 9.7 C 5.81 g/m*3 9.7 C 0 km/h
297 19-05-2010 11:23:02 10.1 C 5.77 g/m*3 10.1 C 0 km/h
298 19-05-2010 11:35:02 10.3 C 5.84 g/m*3 10.3 C 0 km/h
299 19-05-2010 11:47:02 10.7 C 5.89 g/m*3 10.7 C 0 km/h
300 19-05-2010 11:59:02 10.3 C 5.75 g/m*3 10.3 C 0 km/h
Sensor: Nr:Datum:Temp:Abs-Feuchte:Windchill:Wind:
Aussen-T/F 301 19-05-2010 12:11:02 10.7 C 5.99 g/m*3 10.7 C 0 km/h
302 19-05-2010 12:23:02 10.9 C 5.97 g/m*3 10.9 C 0 km/h
303 19-05-2010 12:35:02 10.7 C 5.8 g/m*3 10.7 C 0 km/h
304 19-05-2010 12:47:02 11.1 C 5.64 g/m*3 11.1 C 0 km/h
305 19-05-2010 12:59:02 11.7 C 5.75 g/m*3 11.7 C 0 km/h
306 19-05-2010 13:11:02 11.9 C 5.61 g/m*3 11.9 C 0 km/h
307 19-05-2010 13:23:01 11.7 C 5.33 g/m*3 11.7 C 0 km/h
308 19-05-2010 13:35:02 11.5 C 5.99 g/m*3 11.5 C 0 km/h
309 19-05-2010 13:47:02 11.3 C 6.32 g/m*3 11.3 C 0 km/h
310 19-05-2010 13:59:02 11.3 C 6.32 g/m*3 11.3 C 0 km/h
311 19-05-2010 14:11:02 11.4 C 6.47 g/m*3 11.4 C 0 km/h
312 19-05-2010 14:23:02 11.2 C 6.39 g/m*3 11.2 C 0 km/h
313 19-05-2010 14:35:02 10.9 C 6.76 g/m*3 10.9 C 0 km/h
314 19-05-2010 14:47:02 11.9 C 7.31 g/m*3 11.9 C 0 km/h
315 19-05-2010 14:59:02 11.9 C 6.99 g/m*3 11.9 C 0 km/h
316 19-05-2010 15:11:02 11.8 C 7.37 g/m*3 11.8 C 0 km/h
317 19-05-2010 15:23:02 11.5 C 7.64 g/m*3 11.5 C 0 km/h
318 19-05-2010 15:35:02 11.4 C 7.9 g/m*3 11.4 C 0 km/h
319 19-05-2010 15:47:02 11.1 C 7.86 g/m*3 11.1 C 0 km/h
320 19-05-2010 15:59:02 11.2 C 8.01 g/m*3 11.2 C 0 km/h
321 19-05-2010 16:11:02 11 C 8.01 g/m*3 11 C 0 km/h
322 19-05-2010 16:23:02 10.8 C 8.01 g/m*3 10.8 C 0 km/h
323 19-05-2010 16:35:02 10.7 C 8.05 g/m*3 10.7 C 0 km/h
324 19-05-2010 16:47:02 10.8 C 8.2 g/m*3 10.8 C 0 km/h
325 19-05-2010 16:59:02 10.6 C 8.1 g/m*3 10.6 C 0 km/h
Sensor: Nr:Datum:Temp:Abs-Feuchte:Windchill:Wind:
Aussen-T/F 326 19-05-2010 17:11:02 10.7 C 8.25 g/m*3 10.7 C 0 km/h
327 19-05-2010 17:23:03 10.6 C 8.3 g/m*3 10.6 C 0 km/h
328 19-05-2010 17:35:02 10.7 C 8.35 g/m*3 10.7 C 0 km/h
329 19-05-2010 17:47:02 10.7 C 8.35 g/m*3 10.7 C 0 km/h
330 19-05-2010 17:59:02 10.7 C 8.35 g/m*3 10.7 C 0 km/h
331 19-05-2010 18:11:02 11.1 C 8.46 g/m*3 11.1 C 0 km/h
332 19-05-2010 18:23:03 11.1 C 8.36 g/m*3 11.1 C 0 km/h
333 19-05-2010 18:35:02 11.1 C 8.16 g/m*3 11.1 C 0 km/h
334 19-05-2010 18:47:02 11.2 C 8.11 g/m*3 11.2 C 0 km/h
335 19-05-2010 18:59:02 11.2 C 8.01 g/m*3 11.2 C 0 km/h
336 19-05-2010 19:11:02 11.3 C 7.96 g/m*3 11.3 C 0 km/h
337 19-05-2010 19:23:02 11.4 C 8.01 g/m*3 11.4 C 0 km/h
338 19-05-2010 19:35:02 11.5 C 8.06 g/m*3 11.5 C 0 km/h
339 19-05-2010 19:47:02 11.6 C 8.11 g/m*3 11.6 C 0 km/h
340 19-05-2010 19:59:02 11.6 C 8 g/m*3 11.6 C 0 km/h
341 19-05-2010 20:11:02 11.6 C 8 g/m*3 11.6 C 0 km/h
342 19-05-2010 20:23:02 11.7 C 7.95 g/m*3 11.7 C 0 km/h
343 19-05-2010 20:35:01 11.7 C 7.84 g/m*3 11.7 C 0 km/h
344 19-05-2010 20:47:02 11.8 C 7.68 g/m*3 11.8 C 0 km/h
345 19-05-2010 20:59:02 12 C 7.14 g/m*3 12 C 0 km/h
346 19-05-2010 21:11:01 12.6 C 6.2 g/m*3 12.6 C 0 km/h
347 19-05-2010 21:23:02 12.8 C 6.16 g/m*3 12.8 C 0 km/h
348 19-05-2010 21:35:02 13.2 C 5.51 g/m*3 13.2 C 0 km/h
349 19-05-2010 21:47:02 13 C 5.78 g/m*3 13 C 0 km/h
350 19-05-2010 21:59:03 13.1 C 5.48 g/m*3 13.1 C 0 km/h
Sensor: Nr:Datum:Temp:Abs-Feuchte:Windchill:Wind:
Aussen-T/F 351 19-05-2010 22:11:02 13.2 C 5.51 g/m*3 13.2 C 0 km/h
352 19-05-2010 22:23:02 13.1 C 5.71 g/m*3 13.1 C 0 km/h
353 19-05-2010 22:35:03 13.2 C 5.63 g/m*3 13.2 C 0 km/h
354 19-05-2010 22:47:02 13 C 5.67 g/m*3 13 C 0 km/h
355 19-05-2010 22:59:03 12.8 C 5.94 g/m*3 12.8 C 0 km/h
356 19-05-2010 23:11:01 12.8 C 5.94 g/m*3 12.8 C 0 km/h
357 19-05-2010 23:23:02 12.8 C 5.82 g/m*3 12.8 C 0 km/h
358 19-05-2010 23:35:02 12.8 C 5.94 g/m*3 12.8 C 0 km/h
359 19-05-2010 23:47:02 12.9 C 5.75 g/m*3 12.9 C 0 km/h
360 19-05-2010 23:59:02 12.7 C 5.68 g/m*3 12.7 C 0 km/h
361 20-05-2010 00:11:02 12.9 C 5.52 g/m*3 12.9 C 0 km/h
362 20-05-2010 00:23:03 12.8 C 5.49 g/m*3 12.8 C 0 km/h
363 20-05-2010 00:35:02 12.8 C 5.26 g/m*3 12.8 C 0 km/h
364 20-05-2010 00:47:02 13 C 4.99 g/m*3 13 C 0 km/h
365 20-05-2010 00:59:02 13 C 4.76 g/m*3 13 C 0 km/h
366 20-05-2010 01:11:02 12.8 C 4.93 g/m*3 12.8 C 0 km/h
367 20-05-2010 01:23:03 12.6 C 5.2 g/m*3 12.6 C 0 km/h
368 20-05-2010 01:35:02 12.5 C 5.61 g/m*3 12.5 C 0 km/h
369 20-05-2010 01:47:03 12.4 C 5.68 g/m*3 12.4 C 0 km/h
370 20-05-2010 01:59:03 12.2 C 5.61 g/m*3 12.2 C 0 km/h
371 20-05-2010 02:11:02 12.1 C 5.47 g/m*3 12.1 C 0 km/h
372 20-05-2010 02:23:03 12 C 5.65 g/m*3 12 C 0 km/h
373 20-05-2010 02:35:02 11.8 C 5.68 g/m*3 11.8 C 0 km/h
374 20-05-2010 02:48:04 11.7 C 5.65 g/m*3 11.7 C 0 km/h
375 20-05-2010 03:00:04 11.5 C 5.68 g/m*3 11.5 C 0 km/h
Sensor: Nr:Datum:Temp:Abs-Feuchte:Windchill:Wind:
Aussen-T/F 376 20-05-2010 03:12:03 11.7 C 5.54 g/m*3 11.7 C 0 km/h
377 20-05-2010 03:24:03 11.5 C 5.37 g/m*3 11.5 C 0 km/h
378 20-05-2010 03:36:01 11.4 C 5.44 g/m*3 11.4 C 0 km/h
379 20-05-2010 03:48:01 11.5 C 5.47 g/m*3 11.5 C 0 km/h
380 20-05-2010 04:00:01 11.2 C 5.47 g/m*3 11.2 C 0 km/h
381 20-05-2010 04:12:02 11.3 C 5.3 g/m*3 11.3 C 0 km/h
382 20-05-2010 04:24:01 11.2 C 5.27 g/m*3 11.2 C 0 km/h
383 20-05-2010 04:36:02 11.1 C 5.24 g/m*3 11.1 C 0 km/h
384 20-05-2010 04:48:01 11 C 5.2 g/m*3 11 C 0 km/h
385 20-05-2010 05:00:01 11.1 C 5.24 g/m*3 11.1 C 0 km/h
386 20-05-2010 05:12:02 11.1 C 5.14 g/m*3 11.1 C 0 km/h
387 20-05-2010 05:24:02 11 C 5.31 g/m*3 11 C 0 km/h
388 20-05-2010 05:36:02 11 C 5.2 g/m*3 11 C 0 km/h
389 20-05-2010 05:48:01 10.9 C 5.27 g/m*3 10.9 C 0 km/h
390 20-05-2010 06:00:01 10.9 C 5.27 g/m*3 10.9 C 0 km/h
391 20-05-2010 06:12:02 10.9 C 5.37 g/m*3 10.9 C 0 km/h
392 20-05-2010 06:24:02 11 C 5 g/m*3 11 C 0 km/h
393 20-05-2010 06:36:02 11.1 C 5.04 g/m*3 11.1 C 0 km/h
394 20-05-2010 06:48:02 11.2 C 5.27 g/m*3 11.2 C 0 km/h
395 20-05-2010 07:00:02 11.2 C 5.17 g/m*3 11.2 C 0 km/h
396 20-05-2010 07:12:02 11.2 C 5.17 g/m*3 11.2 C 0 km/h
397 20-05-2010 07:24:02 11.2 C 5.17 g/m*3 11.2 C 0 km/h
398 20-05-2010 07:36:01 11.4 C 5.44 g/m*3 11.4 C 0 km/h
399 20-05-2010 07:48:02 11.3 C 5.3 g/m*3 11.3 C 0 km/h
400 20-05-2010 08:00:02 11.2 C 5.27 g/m*3 11.2 C 0 km/h
Sensor: Nr:Datum:Temp:Abs-Feuchte:Windchill:Wind:
Aussen-T/F 401 20-05-2010 08:12:01 11 C 5.2 g/m*3 11 C 0 km/h
402 20-05-2010 08:24:02 11 C 5.31 g/m*3 11 C 0 km/h
403 20-05-2010 08:36:01 11.1 C 5.44 g/m*3 11.1 C 0 km/h
404 20-05-2010 08:48:02 11.4 C 5.54 g/m*3 11.4 C 0 km/h
405 20-05-2010 09:00:02 11.8 C 5.47 g/m*3 11.8 C 0 km/h
406 20-05-2010 09:12:02 11.8 C 5.37 g/m*3 11.8 C 0 km/h
407 20-05-2010 09:24:02 11.8 C 5.47 g/m*3 11.8 C 0 km/h
408 20-05-2010 09:36:01 11.7 C 5.44 g/m*3 11.7 C 0 km/h
409 20-05-2010 09:48:02 12 C 5.33 g/m*3 12 C 0 km/h
410 20-05-2010 10:00:02 12.1 C 5.36 g/m*3 12.1 C 0 km/h
411 20-05-2010 10:12:01 12.1 C 5.36 g/m*3 12.1 C 0 km/h
412 20-05-2010 10:24:02 12.4 C 5.46 g/m*3 12.4 C 0 km/h
413 20-05-2010 10:36:01 12.5 C 5.39 g/m*3 12.5 C 0 km/h
414 20-05-2010 10:48:02 12.4 C 5.35 g/m*3 12.4 C 0 km/h
415 20-05-2010 11:00:02 12.5 C 5.28 g/m*3 12.5 C 0 km/h
416 20-05-2010 11:12:02 12.7 C 5.23 g/m*3 12.7 C 0 km/h
417 20-05-2010 11:24:02 13.1 C 5.14 g/m*3 13.1 C 0 km/h
418 20-05-2010 11:36:02 13.4 C 5 g/m*3 13.4 C 0 km/h
419 20-05-2010 11:48:02 13.8 C 5.12 g/m*3 13.8 C 0 km/h
420 20-05-2010 12:00:02 13.8 C 5 g/m*3 13.8 C 0 km/h
421 20-05-2010 12:12:01 13.8 C 4.89 g/m*3 13.8 C 0 km/h
422 20-05-2010 12:24:01 14.4 C 4.82 g/m*3 14.4 C 0 km/h
423 20-05-2010 12:36:02 14.2 C 4.88 g/m*3 14.2 C 0 km/h
424 20-05-2010 12:48:02 14 C 4.82 g/m*3 14 C 0 km/h
425 20-05-2010 13:00:02 14 C 4.95 g/m*3 14 C 0 km/h
Sensor: Nr:Datum:Temp:Abs-Feuchte:Windchill:Wind:
Aussen-T/F 426 20-05-2010 13:12:02 14.1 C 5.1 g/m*3 14.1 C 0 km/h
427 20-05-2010 13:24:01 13 C 6.01 g/m*3 13 C 0 km/h
428 20-05-2010 13:36:02 12.9 C 6.88 g/m*3 12.9 C 0 km/h
429 20-05-2010 13:48:02 13.1 C 7.3 g/m*3 13.1 C 0 km/h
430 20-05-2010 14:00:02 12.8 C 7.39 g/m*3 12.8 C 0 km/h
431 20-05-2010 14:12:02 13.5 C 7.84 g/m*3 13.5 C 0 km/h
432 20-05-2010 14:24:02 13.9 C 7.67 g/m*3 13.9 C 0 km/h
433 20-05-2010 14:36:02 13.9 C 7.43 g/m*3 13.9 C 0 km/h
434 20-05-2010 14:48:02 13.8 C 7.63 g/m*3 13.8 C 0 km/h
435 20-05-2010 15:00:02 13.7 C 7.7 g/m*3 13.7 C 0 km/h
436 20-05-2010 15:12:03 13.4 C 7.56 g/m*3 13.4 C 0 km/h
437 20-05-2010 15:24:02 12 C 7.67 g/m*3 12 C 0 km/h
438 20-05-2010 15:36:02 12.1 C 7.83 g/m*3 12.1 C 0 km/h
439 20-05-2010 15:48:02 12.5 C 7.59 g/m*3 12.5 C 0 km/h
440 20-05-2010 16:00:02 13.1 C 7.87 g/m*3 13.1 C 0 km/h
441 20-05-2010 16:12:02 12.9 C 7.55 g/m*3 12.9 C 0 km/h
442 20-05-2010 16:24:01 12.4 C 7.21 g/m*3 12.4 C 0 km/h
443 20-05-2010 16:36:02 12.6 C 7.85 g/m*3 12.6 C 0 km/h
444 20-05-2010 16:48:02 12.8 C 8.06 g/m*3 12.8 C 0 km/h
445 20-05-2010 17:00:02 13.3 C 8.2 g/m*3 13.3 C 0 km/h
446 20-05-2010 17:12:02 14.2 C 7.82 g/m*3 14.2 C 0 km/h
447 20-05-2010 17:24:02 14 C 7.24 g/m*3 14 C 0 km/h
448 20-05-2010 17:36:02 14.3 C 7.86 g/m*3 14.3 C 0 km/h
449 20-05-2010 17:48:02 14.2 C 7.57 g/m*3 14.2 C 0 km/h
450 20-05-2010 18:00:02 14.4 C 7.91 g/m*3 14.4 C 0 km/h
Sensor: Nr:Datum:Temp:Abs-Feuchte:Windchill:Wind:
Aussen-T/F 451 20-05-2010 18:12:02 14.6 C 7.88 g/m*3 14.6 C 0 km/h
452 20-05-2010 18:24:02 14.7 C 7.81 g/m*3 14.7 C 0 km/h
453 20-05-2010 18:36:02 15 C 8.08 g/m*3 15 C 0 km/h
454 20-05-2010 18:48:02 14.8 C 7.73 g/m*3 14.8 C 0 km/h
455 20-05-2010 19:00:02 14.7 C 8.06 g/m*3 14.7 C 0 km/h
456 20-05-2010 19:12:02 14.8 C 8.23 g/m*3 14.8 C 0 km/h
457 20-05-2010 19:24:03 14.8 C 8.23 g/m*3 14.8 C 0 km/h
458 20-05-2010 19:36:02 14.9 C 8.28 g/m*3 14.9 C 0 km/h
459 20-05-2010 19:48:02 14.8 C 8.11 g/m*3 14.8 C 0 km/h
460 20-05-2010 20:00:02 14.8 C 8.11 g/m*3 14.8 C 0 km/h
461 20-05-2010 20:12:02 14.7 C 8.06 g/m*3 14.7 C 0 km/h
462 20-05-2010 20:24:03 14.4 C 7.91 g/m*3 14.4 C 0 km/h
463 20-05-2010 20:36:02 14.1 C 7.65 g/m*3 14.1 C 0 km/h
464 20-05-2010 20:48:03 13.8 C 7.86 g/m*3 13.8 C 0 km/h
465 20-05-2010 21:00:03 13.5 C 7.95 g/m*3 13.5 C 0 km/h
466 20-05-2010 21:12:02 13.2 C 7.58 g/m*3 13.2 C 0 km/h
467 20-05-2010 21:24:02 12.8 C 7.5 g/m*3 12.8 C 0 km/h
468 20-05-2010 21:36:02 12.8 C 7.62 g/m*3 12.8 C 0 km/h
469 20-05-2010 21:48:02 12.6 C 7.41 g/m*3 12.6 C 0 km/h
470 20-05-2010 22:00:02 12.5 C 7.37 g/m*3 12.5 C 0 km/h
471 20-05-2010 22:12:02 12.4 C 7.32 g/m*3 12.4 C 0 km/h
472 20-05-2010 22:24:02 12.2 C 7.01 g/m*3 12.2 C 0 km/h
473 20-05-2010 22:36:02 12.2 C 7.12 g/m*3 12.2 C 0 km/h
474 20-05-2010 22:49:03 12.2 C 7.23 g/m*3 12.2 C 0 km/h
475 20-05-2010 23:01:03 12.2 C 7.34 g/m*3 12.2 C 0 km/h
Sensor: Nr:Datum:Temp:Abs-Feuchte:Windchill:Wind:
Aussen-T/F 476 20-05-2010 23:13:03 12.1 C 7.51 g/m*3 12.1 C 0 km/h
477 20-05-2010 23:25:03 12.1 C 7.61 g/m*3 12.1 C 0 km/h
478 20-05-2010 23:37:03 11.7 C 7.64 g/m*3 11.7 C 0 km/h
479 20-05-2010 23:49:03 11.4 C 7.6 g/m*3 11.4 C 0 km/h
480 21-05-2010 00:01:03 11.1 C 7.45 g/m*3 11.1 C 0 km/h
481 21-05-2010 00:13:03 10.7 C 7.27 g/m*3 10.7 C 0 km/h
482 21-05-2010 00:25:03 10.6 C 7.32 g/m*3 10.6 C 0 km/h
483 21-05-2010 00:37:03 10.5 C 7.27 g/m*3 10.5 C 0 km/h
484 21-05-2010 00:49:03 10.3 C 7.18 g/m*3 10.3 C 0 km/h
485 21-05-2010 01:01:03 10.1 C 7.19 g/m*3 10.1 C 0 km/h
486 21-05-2010 01:13:03 10.1 C 7.28 g/m*3 10.1 C 0 km/h
487 21-05-2010 01:25:03 10.2 C 7.33 g/m*3 10.2 C 0 km/h
488 21-05-2010 01:37:03 10.2 C 7.33 g/m*3 10.2 C 0 km/h
489 21-05-2010 01:49:03 10.1 C 7.38 g/m*3 10.1 C 0 km/h
490 21-05-2010 02:01:03 10 C 7.33 g/m*3 10 C 0 km/h
491 21-05-2010 02:13:03 9.7 C 7.28 g/m*3 9.7 C 0 km/h
492 21-05-2010 02:25:03 9.5 C 7.28 g/m*3 9.5 C 0 km/h
493 21-05-2010 02:37:03 9.2 C 7.23 g/m*3 9.2 C 0 km/h
494 21-05-2010 02:49:04 9.1 C 7.19 g/m*3 9.1 C 0 km/h
495 21-05-2010 03:01:04 9 C 7.23 g/m*3 9 C 0 km/h
496 21-05-2010 03:13:04 8.8 C 7.31 g/m*3 8.8 C 0 km/h
497 21-05-2010 03:25:04 8.6 C 7.22 g/m*3 8.6 C 0 km/h
498 21-05-2010 03:37:04 8.5 C 7.34 g/m*3 8.5 C 0 km/h
499 21-05-2010 03:49:04 8.2 C 7.2 g/m*3 8.2 C 0 km/h
500 21-05-2010 04:01:04 8.1 C 7.16 g/m*3 8.1 C 0 km/h
Sensor: Nr:Datum:Temp:Abs-Feuchte:Windchill:Wind:
Aussen-T/F 501 21-05-2010 04:13:04 8 C 7.11 g/m*3 8 C 0 km/h
502 21-05-2010 04:25:04 7.9 C 7.15 g/m*3 7.9 C 0 km/h
503 21-05-2010 04:37:04 7.8 C 7.1 g/m*3 7.8 C 0 km/h
504 21-05-2010 04:49:04 7.6 C 7.09 g/m*3 7.6 C 0 km/h
505 21-05-2010 05:01:04 8.1 C 7.32 g/m*3 8.1 C 0 km/h
506 21-05-2010 05:13:04 8.2 C 7.37 g/m*3 8.2 C 0 km/h
507 21-05-2010 05:25:04 8.2 C 7.37 g/m*3 8.2 C 0 km/h
508 21-05-2010 05:37:04 8.1 C 7.32 g/m*3 8.1 C 0 km/h
509 21-05-2010 05:49:04 7.9 C 7.23 g/m*3 7.9 C 0 km/h
510 21-05-2010 06:01:04 7.8 C 7.26 g/m*3 7.8 C 0 km/h
511 21-05-2010 06:13:04 7.9 C 7.39 g/m*3 7.9 C 0 km/h
512 21-05-2010 06:25:04 8 C 7.36 g/m*3 8 C 0 km/h
513 21-05-2010 06:37:04 8.2 C 7.45 g/m*3 8.2 C 0 km/h
514 21-05-2010 06:49:04 8.5 C 7.68 g/m*3 8.5 C 0 km/h
515 21-05-2010 07:01:02 8.7 C 7.78 g/m*3 8.7 C 0 km/h
516 21-05-2010 07:13:02 8.6 C 7.65 g/m*3 8.6 C 0 km/h
517 21-05-2010 07:25:03 8.4 C 7.47 g/m*3 8.4 C 0 km/h
518 21-05-2010 07:37:02 8.4 C 7.47 g/m*3 8.4 C 0 km/h
519 21-05-2010 07:49:02 8.5 C 7.51 g/m*3 8.5 C 0 km/h
520 21-05-2010 08:01:02 8.7 C 7.52 g/m*3 8.7 C 0 km/h
521 21-05-2010 08:13:02 8.8 C 7.57 g/m*3 8.8 C 0 km/h
522 21-05-2010 08:25:02 9.2 C 7.5 g/m*3 9.2 C 0 km/h
523 21-05-2010 08:37:03 9.6 C 7.6 g/m*3 9.6 C 0 km/h
524 21-05-2010 08:49:02 9.7 C 7.56 g/m*3 9.7 C 0 km/h
525 21-05-2010 09:01:01 9.9 C 7.66 g/m*3 9.9 C 0 km/h
Sensor: Nr:Datum:Temp:Abs-Feuchte:Windchill:Wind:
Aussen-T/F 526 21-05-2010 09:13:01 10.2 C 7.71 g/m*3 10.2 C 0 km/h
527 21-05-2010 09:25:02 10.6 C 7.91 g/m*3 10.6 C 0 km/h
528 21-05-2010 09:37:02 11.4 C 8.11 g/m*3 11.4 C 0 km/h
529 21-05-2010 09:49:02 12 C 8.1 g/m*3 12 C 0 km/h
530 21-05-2010 10:01:03 12.8 C 8.4 g/m*3 12.8 C 0 km/h
531 21-05-2010 10:13:03 13.6 C 8.47 g/m*3 13.6 C 0 km/h
532 21-05-2010 10:25:02 14.5 C 8.46 g/m*3 14.5 C 0 km/h
533 21-05-2010 10:37:03 15.5 C 8.2 g/m*3 15.5 C 0 km/h
534 21-05-2010 10:49:02 16.5 C 7.72 g/m*3 16.5 C 0 km/h
535 21-05-2010 11:01:02 17.2 C 7.47 g/m*3 17.2 C 0 km/h
536 21-05-2010 11:13:02 17.8 C 7.59 g/m*3 17.8 C 0 km/h
537 21-05-2010 11:25:01 18.6 C 7.48 g/m*3 18.6 C 0 km/h
538 21-05-2010 11:37:02 19.2 C 7.42 g/m*3 19.2 C 0 km/h
539 21-05-2010 11:49:02 19.5 C 6.71 g/m*3 19.5 C 0 km/h
540 21-05-2010 12:01:02 19.2 C 6.27 g/m*3 19.2 C 0 km/h
541 21-05-2010 12:13:02 20.6 C 6.62 g/m*3 20.6 C 0 km/h
542 21-05-2010 12:25:02 20.9 C 6.19 g/m*3 20.9 C 0 km/h
543 21-05-2010 12:37:02 20.8 C 5.61 g/m*3 20.8 C 0 km/h
544 21-05-2010 12:49:02 21.2 C 5.37 g/m*3 21.2 C 0 km/h
545 21-05-2010 13:01:02 21.9 C 5.79 g/m*3 21.9 C 0 km/h
546 21-05-2010 13:13:02 23.7 C 5.35 g/m*3 23.7 C 0 km/h
547 21-05-2010 13:25:02 24.8 C 5.01 g/m*3 24.8 C 0 km/h
548 21-05-2010 13:37:02 25.2 C 4.89 g/m*3 25.2 C 0 km/h
549 21-05-2010 13:49:02 23.3 C 4.39 g/m*3 23.3 C 0 km/h
550 21-05-2010 14:01:02 23.1 C 5.17 g/m*3 23.1 C 0 km/h
Sensor: Nr:Datum:Temp:Abs-Feuchte:Windchill:Wind:
Aussen-T/F 551 21-05-2010 14:13:02 23.5 C 5.29 g/m*3 23.5 C 0 km/h
552 21-05-2010 14:25:02 24.4 C 5.12 g/m*3 24.4 C 0 km/h
553 21-05-2010 14:37:02 23.8 C 4.95 g/m*3 23.8 C 0 km/h
554 21-05-2010 14:49:02 24.6 C 5.63 g/m*3 24.6 C 0 km/h
555 21-05-2010 15:01:02 23.9 C 4.98 g/m*3 23.9 C 0 km/h
556 21-05-2010 15:13:02 25.2 C 5.12 g/m*3 25.2 C 0 km/h
557 21-05-2010 15:25:03 25.8 C 5.54 g/m*3 25.8 C 0 km/h
558 21-05-2010 15:37:02 25.7 C 4.79 g/m*3 25.7 C 0 km/h
559 21-05-2010 15:49:02 26.5 C 5.26 g/m*3 26.5 C 0 km/h
560 21-05-2010 16:01:02 26.3 C 4.95 g/m*3 26.3 C 0 km/h
561 21-05-2010 16:13:02 24.4 C 4.9 g/m*3 24.4 C 0 km/h
562 21-05-2010 16:25:02 25.3 C 4.92 g/m*3 25.3 C 0 km/h
563 21-05-2010 16:37:02 25 C 4.83 g/m*3 25 C 0 km/h
564 21-05-2010 16:49:02 25.4 C 4.71 g/m*3 25.4 C 0 km/h
565 21-05-2010 17:01:02 26.4 C 4.98 g/m*3 26.4 C 0 km/h
566 21-05-2010 17:13:02 25.7 C 4.79 g/m*3 25.7 C 0 km/h
567 21-05-2010 17:25:02 26.1 C 4.9 g/m*3 26.1 C 0 km/h
568 21-05-2010 17:37:02 26.7 C 5.06 g/m*3 26.7 C 0 km/h
569 21-05-2010 17:49:02 25.8 C 4.82 g/m*3 25.8 C 0 km/h
570 21-05-2010 18:01:01 26.4 C 4.98 g/m*3 26.4 C 0 km/h
571 21-05-2010 18:13:01 27 C 5.15 g/m*3 27 C 0 km/h
572 21-05-2010 18:25:02 26.2 C 4.92 g/m*3 26.2 C 0 km/h
573 21-05-2010 18:37:02 25.3 C 4.92 g/m*3 25.3 C 0 km/h
574 21-05-2010 18:49:02 24.8 C 5.24 g/m*3 24.8 C 0 km/h
575 21-05-2010 19:01:01 24.9 C 5.72 g/m*3 24.9 C 0 km/h
Sensor: Nr:Datum:Temp:Abs-Feuchte:Windchill:Wind:
Aussen-T/F 576 21-05-2010 19:13:01 24.6 C 5.63 g/m*3 24.6 C 0 km/h
577 21-05-2010 19:25:01 24.6 C 5.85 g/m*3 24.6 C 0 km/h
578 21-05-2010 19:37:02 24.1 C 5.69 g/m*3 24.1 C 0 km/h
579 21-05-2010 19:49:02 24 C 6.09 g/m*3 24 C 0 km/h
580 21-05-2010 20:01:02 23.6 C 5.96 g/m*3 23.6 C 0 km/h
581 21-05-2010 20:13:02 23.3 C 6.27 g/m*3 23.3 C 0 km/h
582 21-05-2010 20:25:02 22.9 C 6.34 g/m*3 22.9 C 0 km/h
583 21-05-2010 20:37:02 22.3 C 6.12 g/m*3 22.3 C 0 km/h
584 21-05-2010 20:49:02 21.2 C 6.49 g/m*3 21.2 C 0 km/h
585 21-05-2010 21:01:03 20.8 C 6.52 g/m*3 20.8 C 0 km/h
586 21-05-2010 21:13:03 20.4 C 6.55 g/m*3 20.4 C 0 km/h
587 21-05-2010 21:25:03 20 C 6.57 g/m*3 20 C 0 km/h
588 21-05-2010 21:37:03 19.8 C 6.66 g/m*3 19.8 C 0 km/h
589 21-05-2010 21:49:02 19.4 C 6.67 g/m*3 19.4 C 0 km/h
590 21-05-2010 22:01:02 18.9 C 6.97 g/m*3 18.9 C 0 km/h
591 21-05-2010 22:13:02 18.4 C 6.92 g/m*3 18.4 C 0 km/h
592 21-05-2010 22:25:02 18.2 C 7.15 g/m*3 18.2 C 0 km/h
593 21-05-2010 22:37:02 17.9 C 7.33 g/m*3 17.9 C 0 km/h
594 21-05-2010 22:49:02 17 C 7.38 g/m*3 17 C 0 km/h
595 21-05-2010 23:01:02 17 C 7.23 g/m*3 17 C 0 km/h
596 21-05-2010 23:13:02 16.4 C 7.12 g/m*3 16.4 C 0 km/h
597 21-05-2010 23:25:02 16.2 C 7.17 g/m*3 16.2 C 0 km/h
598 21-05-2010 23:38:04 15.9 C 7.31 g/m*3 15.9 C 0 km/h
599 21-05-2010 23:50:04 15.8 C 7.54 g/m*3 15.8 C 0 km/h
600 22-05-2010 00:02:04 15.6 C 7.58 g/m*3 15.6 C 0 km/h
Sensor: Nr:Datum:Temp:Abs-Feuchte:Windchill:Wind:
Aussen-T/F 601 22-05-2010 00:14:04 15.4 C 7.49 g/m*3 15.4 C 0 km/h
602 22-05-2010 00:26:04 15.1 C 7.61 g/m*3 15.1 C 0 km/h
603 22-05-2010 00:38:04 14.8 C 7.73 g/m*3 14.8 C 0 km/h
604 22-05-2010 00:50:04 14.5 C 7.71 g/m*3 14.5 C 0 km/h
605 22-05-2010 01:02:04 14.4 C 7.79 g/m*3 14.4 C 0 km/h
606 22-05-2010 01:14:04 14.1 C 7.77 g/m*3 14.1 C 0 km/h
607 22-05-2010 01:26:04 13.9 C 7.91 g/m*3 13.9 C 0 km/h
608 22-05-2010 01:38:04 13.6 C 7.77 g/m*3 13.6 C 0 km/h
609 22-05-2010 01:50:04 13.4 C 7.9 g/m*3 13.4 C 0 km/h
610 22-05-2010 02:02:04 13.2 C 7.92 g/m*3 13.2 C 0 km/h
611 22-05-2010 02:14:04 12.9 C 7.89 g/m*3 12.9 C 0 km/h
612 22-05-2010 02:26:04 12.7 C 7.9 g/m*3 12.7 C 0 km/h
613 22-05-2010 02:38:04 12.5 C 7.92 g/m*3 12.5 C 0 km/h
614 22-05-2010 02:50:04 12.4 C 7.98 g/m*3 12.4 C 0 km/h
615 22-05-2010 03:02:04 12.3 C 7.93 g/m*3 12.3 C 0 km/h
616 22-05-2010 03:14:04 12.1 C 7.94 g/m*3 12.1 C 0 km/h
617 22-05-2010 03:26:04 12 C 7.89 g/m*3 12 C 0 km/h
618 22-05-2010 03:38:05 11.9 C 7.94 g/m*3 11.9 C 0 km/h
619 22-05-2010 03:50:05 11.7 C 7.95 g/m*3 11.7 C 0 km/h
620 22-05-2010 04:02:05 11.5 C 7.95 g/m*3 11.5 C 0 km/h
621 22-05-2010 04:14:05 11.2 C 7.91 g/m*3 11.2 C 0 km/h
622 22-05-2010 04:26:05 11 C 7.81 g/m*3 11 C 0 km/h
623 22-05-2010 04:38:05 10.9 C 7.96 g/m*3 10.9 C 0 km/h
624 22-05-2010 04:50:05 10.7 C 7.86 g/m*3 10.7 C 0 km/h
625 22-05-2010 05:02:05 10.7 C 7.86 g/m*3 10.7 C 0 km/h
Sensor: Nr:Datum:Temp:Abs-Feuchte:Windchill:Wind:
Aussen-T/F 626 22-05-2010 05:14:05 10.3 C 7.76 g/m*3 10.3 C 0 km/h
627 22-05-2010 05:26:05 10.3 C 7.76 g/m*3 10.3 C 0 km/h
628 22-05-2010 05:38:05 10.2 C 7.8 g/m*3 10.2 C 0 km/h
629 22-05-2010 05:50:05 10 C 7.71 g/m*3 10 C 0 km/h
630 22-05-2010 06:02:05 9.9 C 7.75 g/m*3 9.9 C 0 km/h
631 22-05-2010 06:14:05 9.9 C 7.75 g/m*3 9.9 C 0 km/h
632 22-05-2010 06:26:05 9.9 C 7.75 g/m*3 9.9 C 0 km/h
633 22-05-2010 06:38:05 10.1 C 7.75 g/m*3 10.1 C 0 km/h
634 22-05-2010 06:50:05 10 C 7.71 g/m*3 10 C 0 km/h
635 22-05-2010 07:02:05 10.2 C 7.8 g/m*3 10.2 C 0 km/h
636 22-05-2010 07:14:05 10.2 C 7.8 g/m*3 10.2 C 0 km/h
637 22-05-2010 07:26:03 10.3 C 7.85 g/m*3 10.3 C 0 km/h
638 22-05-2010 07:38:03 10.7 C 8.05 g/m*3 10.7 C 0 km/h
639 22-05-2010 07:50:02 11.3 C 8.36 g/m*3 11.3 C 0 km/h
640 22-05-2010 08:02:02 11.7 C 8.26 g/m*3 11.7 C 0 km/h
641 22-05-2010 08:14:02 12 C 8.1 g/m*3 12 C 0 km/h
642 22-05-2010 08:26:02 12.3 C 8.04 g/m*3 12.3 C 0 km/h
643 22-05-2010 08:38:03 12.6 C 7.85 g/m*3 12.6 C 0 km/h
644 22-05-2010 08:50:02 13 C 7.48 g/m*3 13 C 0 km/h
645 22-05-2010 09:02:02 13.3 C 7.39 g/m*3 13.3 C 0 km/h
646 22-05-2010 09:14:02 13.7 C 7.46 g/m*3 13.7 C 0 km/h
647 22-05-2010 09:26:02 13.9 C 7.55 g/m*3 13.9 C 0 km/h
648 22-05-2010 09:38:02 14.3 C 7.13 g/m*3 14.3 C 0 km/h
649 22-05-2010 09:50:02 14.8 C 7.09 g/m*3 14.8 C 0 km/h
650 22-05-2010 10:02:02 15.3 C 6.4 g/m*3 15.3 C 0 km/h
Sensor: Nr:Datum:Temp:Abs-Feuchte:Windchill:Wind:
Aussen-T/F 651 22-05-2010 10:14:02 15.8 C 6.33 g/m*3 15.8 C 0 km/h
652 22-05-2010 10:26:02 16 C 6.13 g/m*3 16 C 0 km/h
653 22-05-2010 10:38:02 16.7 C 6.4 g/m*3 16.7 C 0 km/h
654 22-05-2010 10:50:01 17 C 6.22 g/m*3 17 C 0 km/h
655 22-05-2010 11:02:02 17.6 C 6.3 g/m*3 17.6 C 0 km/h
656 22-05-2010 11:14:02 18 C 6.14 g/m*3 18 C 0 km/h
657 22-05-2010 11:26:01 18.1 C 6.03 g/m*3 18.1 C 0 km/h
658 22-05-2010 11:38:02 18.7 C 6.08 g/m*3 18.7 C 0 km/h
659 22-05-2010 11:50:02 19.1 C 5.9 g/m*3 19.1 C 0 km/h
660 22-05-2010 12:02:02 19.3 C 5.81 g/m*3 19.3 C 0 km/h
661 22-05-2010 12:14:02 20.2 C 5.94 g/m*3 20.2 C 0 km/h
662 22-05-2010 12:26:01 21.8 C 5.95 g/m*3 21.8 C 0 km/h
663 22-05-2010 12:38:01 21.3 C 5.59 g/m*3 21.3 C 0 km/h
664 22-05-2010 12:50:01 23.3 C 5.85 g/m*3 23.3 C 0 km/h
665 22-05-2010 13:02:01 23.7 C 5.78 g/m*3 23.7 C 0 km/h
666 22-05-2010 13:14:01 24.2 C 5.72 g/m*3 24.2 C 0 km/h
667 22-05-2010 13:26:01 24.2 C 5.5 g/m*3 24.2 C 0 km/h
668 22-05-2010 13:38:00 24.7 C 5.43 g/m*3 24.7 C 0 km/h
669 22-05-2010 13:50:01 24.4 C 5.56 g/m*3 24.4 C 0 km/h
670 22-05-2010 14:02:01 24 C 5 g/m*3 24 C 0 km/h
671 22-05-2010 14:14:01 23.6 C 5.74 g/m*3 23.6 C 0 km/h
672 22-05-2010 14:26:01 24 C 5.66 g/m*3 24 C 0 km/h
673 22-05-2010 14:38:01 23.9 C 5.84 g/m*3 23.9 C 0 km/h
674 22-05-2010 14:50:01 24.3 C 5.75 g/m*3 24.3 C 0 km/h
675 22-05-2010 15:02:01 24.9 C 5.95 g/m*3 24.9 C 0 km/h
Sensor: Nr:Datum:Temp:Abs-Feuchte:Windchill:Wind:
Aussen-T/F 676 22-05-2010 15:14:01 25.4 C 5.89 g/m*3 25.4 C 0 km/h
677 22-05-2010 15:26:02 25.6 C 5.95 g/m*3 25.6 C 0 km/h
678 22-05-2010 15:38:01 25.3 C 6.09 g/m*3 25.3 C 0 km/h
679 22-05-2010 15:50:03 25.5 C 5.92 g/m*3 25.5 C 0 km/h
680 22-05-2010 16:02:02 25.7 C 6.22 g/m*3 25.7 C 0 km/h
681 22-05-2010 16:14:02 25.8 C 6.02 g/m*3 25.8 C 0 km/h
682 22-05-2010 16:26:03 26.1 C 6.12 g/m*3 26.1 C 0 km/h
683 22-05-2010 16:38:02 25.6 C 6.19 g/m*3 25.6 C 0 km/h
684 22-05-2010 16:50:02 26.3 C 6.19 g/m*3 26.3 C 0 km/h
685 22-05-2010 17:02:01 26.7 C 6.33 g/m*3 26.7 C 0 km/h
686 22-05-2010 17:14:01 27 C 6.18 g/m*3 27 C 0 km/h
687 22-05-2010 17:26:02 27.1 C 6.47 g/m*3 27.1 C 0 km/h
688 22-05-2010 17:38:01 27.2 C 6.51 g/m*3 27.2 C 0 km/h
689 22-05-2010 17:50:02 26.4 C 6.47 g/m*3 26.4 C 0 km/h
690 22-05-2010 18:02:02 26.4 C 6.47 g/m*3 26.4 C 0 km/h
691 22-05-2010 18:14:02 26.9 C 6.65 g/m*3 26.9 C 0 km/h
692 22-05-2010 18:26:02 26.6 C 6.54 g/m*3 26.6 C 0 km/h
693 22-05-2010 18:38:03 26.1 C 6.37 g/m*3 26.1 C 0 km/h
694 22-05-2010 18:50:02 26.8 C 6.62 g/m*3 26.8 C 0 km/h
695 22-05-2010 19:02:02 26.4 C 6.47 g/m*3 26.4 C 0 km/h
696 22-05-2010 19:14:02 26.6 C 6.54 g/m*3 26.6 C 0 km/h
697 22-05-2010 19:26:02 26.4 C 6.72 g/m*3 26.4 C 0 km/h
698 22-05-2010 19:38:02 26.2 C 6.65 g/m*3 26.2 C 0 km/h
699 22-05-2010 19:50:01 25.9 C 7.02 g/m*3 25.9 C 0 km/h
700 22-05-2010 20:02:02 25.4 C 6.83 g/m*3 25.4 C 0 km/h
Sensor: Nr:Datum:Temp:Abs-Feuchte:Windchill:Wind:
Aussen-T/F 701 22-05-2010 20:14:02 24.9 C 7.1 g/m*3 24.9 C 0 km/h
702 22-05-2010 20:26:01 24.6 C 7.43 g/m*3 24.6 C 0 km/h
703 22-05-2010 20:38:02 24.2 C 7.48 g/m*3 24.2 C 0 km/h
704 22-05-2010 20:50:02 23.3 C 7.32 g/m*3 23.3 C 0 km/h
705 22-05-2010 21:02:02 22.7 C 7.48 g/m*3 22.7 C 0 km/h
706 22-05-2010 21:14:02 22 C 7.76 g/m*3 22 C 0 km/h
707 22-05-2010 21:26:02 21.2 C 7.41 g/m*3 21.2 C 0 km/h
708 22-05-2010 21:38:02 20.8 C 7.24 g/m*3 20.8 C 0 km/h
709 22-05-2010 21:50:02 20.3 C 7.03 g/m*3 20.3 C 0 km/h
710 22-05-2010 22:02:03 19.9 C 7.22 g/m*3 19.9 C 0 km/h
711 22-05-2010 22:14:03 19.5 C 6.88 g/m*3 19.5 C 0 km/h
712 22-05-2010 22:26:02 19.4 C 6.84 g/m*3 19.4 C 0 km/h
713 22-05-2010 22:38:02 19.2 C 7.26 g/m*3 19.2 C 0 km/h
714 22-05-2010 22:50:02 18.7 C 7.36 g/m*3 18.7 C 0 km/h
715 22-05-2010 23:02:02 18.4 C 7.39 g/m*3 18.4 C 0 km/h
716 22-05-2010 23:14:02 18.1 C 7.42 g/m*3 18.1 C 0 km/h
717 22-05-2010 23:26:01 17.9 C 7.48 g/m*3 17.9 C 0 km/h
718 22-05-2010 23:38:02 17.6 C 7.5 g/m*3 17.6 C 0 km/h
719 22-05-2010 23:50:02 17.5 C 7.6 g/m*3 17.5 C 0 km/h
720 23-05-2010 00:02:02 17.3 C 7.66 g/m*3 17.3 C 0 km/h
721 23-05-2010 00:14:02 17.1 C 7.71 g/m*3 17.1 C 0 km/h
722 23-05-2010 00:26:02 16.6 C 7.91 g/m*3 16.6 C 0 km/h
723 23-05-2010 00:38:02 16.2 C 7.86 g/m*3 16.2 C 0 km/h
724 23-05-2010 00:50:01 16 C 8.04 g/m*3 16 C 0 km/h
725 23-05-2010 01:02:02 15.7 C 8.16 g/m*3 15.7 C 0 km/h
Sensor: Nr:Datum:Temp:Abs-Feuchte:Windchill:Wind:
Aussen-T/F 726 23-05-2010 01:14:02 15.4 C 8.15 g/m*3 15.4 C 0 km/h
727 23-05-2010 01:26:02 15.2 C 8.18 g/m*3 15.2 C 0 km/h
728 23-05-2010 01:38:02 14.9 C 8.28 g/m*3 14.9 C 0 km/h
729 23-05-2010 01:50:02 14.5 C 8.33 g/m*3 14.5 C 0 km/h
730 23-05-2010 02:02:02 14.4 C 8.41 g/m*3 14.4 C 0 km/h
731 23-05-2010 02:14:02 14.2 C 8.3 g/m*3 14.2 C 0 km/h
732 23-05-2010 02:26:02 14.2 C 8.43 g/m*3 14.2 C 0 km/h
733 23-05-2010 02:38:01 14 C 8.32 g/m*3 14 C 0 km/h
734 23-05-2010 02:50:02 13.9 C 8.51 g/m*3 13.9 C 0 km/h
735 23-05-2010 03:02:02 13.8 C 8.46 g/m*3 13.8 C 0 km/h
736 23-05-2010 03:14:01 13.7 C 8.53 g/m*3 13.7 C 0 km/h
737 23-05-2010 03:26:01 13.5 C 8.54 g/m*3 13.5 C 0 km/h
738 23-05-2010 03:38:01 13.2 C 8.5 g/m*3 13.2 C 0 km/h
739 23-05-2010 03:50:01 12.9 C 8.45 g/m*3 12.9 C 0 km/h
740 23-05-2010 04:02:02 12.8 C 8.51 g/m*3 12.8 C 0 km/h
741 23-05-2010 04:14:02 12.7 C 8.46 g/m*3 12.7 C 0 km/h
742 23-05-2010 04:26:01 12.7 C 8.57 g/m*3 12.7 C 0 km/h
743 23-05-2010 04:38:02 12.4 C 8.41 g/m*3 12.4 C 0 km/h
744 23-05-2010 04:50:01 12.3 C 8.47 g/m*3 12.3 C 0 km/h
745 23-05-2010 05:02:02 12.1 C 8.36 g/m*3 12.1 C 0 km/h
746 23-05-2010 05:14:02 12 C 8.42 g/m*3 12 C 0 km/h
747 23-05-2010 05:26:01 11.9 C 8.37 g/m*3 11.9 C 0 km/h
748 23-05-2010 05:38:01 11.8 C 8.31 g/m*3 11.8 C 0 km/h
749 23-05-2010 05:50:01 11.8 C 8.42 g/m*3 11.8 C 0 km/h
750 23-05-2010 06:02:01 11.6 C 8.32 g/m*3 11.6 C 0 km/h
Sensor: Nr:Datum:Temp:Abs-Feuchte:Windchill:Wind:
Aussen-T/F 751 23-05-2010 06:14:02 11.5 C 8.26 g/m*3 11.5 C 0 km/h
752 23-05-2010 06:26:01 11.5 C 8.37 g/m*3 11.5 C 0 km/h
753 23-05-2010 06:38:01 11.5 C 8.37 g/m*3 11.5 C 0 km/h
754 23-05-2010 06:50:01 11.5 C 8.37 g/m*3 11.5 C 0 km/h
755 23-05-2010 07:02:01 11.5 C 8.47 g/m*3 11.5 C 0 km/h
756 23-05-2010 07:14:01 11.8 C 8.63 g/m*3 11.8 C 0 km/h
757 23-05-2010 07:26:02 11.9 C 8.68 g/m*3 11.9 C 0 km/h
758 23-05-2010 07:38:01 12.1 C 8.69 g/m*3 12.1 C 0 km/h
759 23-05-2010 07:50:01 12.4 C 8.85 g/m*3 12.4 C 0 km/h
760 23-05-2010 08:02:01 12.7 C 8.91 g/m*3 12.7 C 0 km/h
761 23-05-2010 08:14:01 13.3 C 9.24 g/m*3 13.3 C 0 km/h
762 23-05-2010 08:26:02 14 C 9.41 g/m*3 14 C 0 km/h
763 23-05-2010 08:38:01 14.4 C 9.27 g/m*3 14.4 C 0 km/h
764 23-05-2010 08:50:01 14.8 C 9.37 g/m*3 14.8 C 0 km/h
765 23-05-2010 09:02:01 15.2 C 9.22 g/m*3 15.2 C 0 km/h
766 23-05-2010 09:14:01 15.7 C 9.37 g/m*3 15.7 C 0 km/h
767 23-05-2010 09:26:02 16.1 C 9.32 g/m*3 16.1 C 0 km/h
768 23-05-2010 09:38:01 16.7 C 9.38 g/m*3 16.7 C 0 km/h
769 23-05-2010 09:50:02 17.2 C 9.08 g/m*3 17.2 C 0 km/h
770 23-05-2010 10:02:01 17.8 C 9.41 g/m*3 17.8 C 0 km/h
771 23-05-2010 10:14:01 18.7 C 9.45 g/m*3 18.7 C 0 km/h
772 23-05-2010 10:26:01 19.2 C 9.4 g/m*3 19.2 C 0 km/h
773 23-05-2010 10:38:01 20 C 9.16 g/m*3 20 C 0 km/h
774 23-05-2010 10:50:01 20.3 C 9.15 g/m*3 20.3 C 0 km/h
775 23-05-2010 11:02:01 20.5 C 8.9 g/m*3 20.5 C 0 km/h
Sensor: Nr:Datum:Temp:Abs-Feuchte:Windchill:Wind:
Aussen-T/F 776 23-05-2010 11:14:02 21.2 C 8.9 g/m*3 21.2 C 0 km/h
777 23-05-2010 11:26:01 20.4 C 8.49 g/m*3 20.4 C 0 km/h
778 23-05-2010 11:38:02 20.9 C 8.74 g/m*3 20.9 C 0 km/h
779 23-05-2010 11:50:02 21.5 C 8.11 g/m*3 21.5 C 0 km/h
780 23-05-2010 12:02:01 22.1 C 8 g/m*3 22.1 C 0 km/h
781 23-05-2010 12:14:01 23.1 C 7.65 g/m*3 23.1 C 0 km/h
782 23-05-2010 12:26:01 23.7 C 6.84 g/m*3 23.7 C 0 km/h
783 23-05-2010 12:38:02 24.6 C 6.75 g/m*3 24.6 C 0 km/h
784 23-05-2010 12:50:01 24.7 C 5.66 g/m*3 24.7 C 0 km/h
785 23-05-2010 13:02:01 25.1 C 4.86 g/m*3 25.1 C 0 km/h
786 23-05-2010 13:14:01 25.8 C 4.82 g/m*3 25.8 C 0 km/h
787 23-05-2010 13:26:01 27.2 C 5.2 g/m*3 27.2 C 0 km/h
788 23-05-2010 13:38:02 26.9 C 5.37 g/m*3 26.9 C 0 km/h
789 23-05-2010 13:50:01 26.8 C 5.09 g/m*3 26.8 C 0 km/h
790 23-05-2010 14:02:02 26.2 C 4.92 g/m*3 26.2 C 0 km/h
791 23-05-2010 14:14:02 25.5 C 5.45 g/m*3 25.5 C 0 km/h
792 23-05-2010 14:26:01 25.6 C 5.48 g/m*3 25.6 C 0 km/h
793 23-05-2010 14:38:01 25.8 C 6.02 g/m*3 25.8 C 0 km/h
794 23-05-2010 14:50:01 27.4 C 6.31 g/m*3 27.4 C 0 km/h
795 23-05-2010 15:02:02 27.7 C 5.88 g/m*3 27.7 C 0 km/h
796 23-05-2010 15:14:02 27.2 C 5.99 g/m*3 27.2 C 0 km/h
797 23-05-2010 15:26:01 27.9 C 5.68 g/m*3 27.9 C 0 km/h
798 23-05-2010 15:38:01 28.2 C 5.77 g/m*3 28.2 C 0 km/h
799 23-05-2010 15:50:01 28.4 C 5.56 g/m*3 28.4 C 0 km/h
800 23-05-2010 16:02:01 28.2 C 5.5 g/m*3 28.2 C 0 km/h
Sensor: Nr:Datum:Temp:Abs-Feuchte:Windchill:Wind:
Aussen-T/F 801 23-05-2010 16:14:01 28.6 C 5.62 g/m*3 28.6 C 0 km/h
802 23-05-2010 16:26:01 29 C 5.74 g/m*3 29 C 0 km/h
803 23-05-2010 16:38:01 28.9 C 5.71 g/m*3 28.9 C 0 km/h
804 23-05-2010 16:50:01 29 C 5.74 g/m*3 29 C 0 km/h
805 23-05-2010 17:02:01 30.2 C 6.13 g/m*3 30.2 C 0 km/h
806 23-05-2010 17:14:01 30.1 C 6.1 g/m*3 30.1 C 0 km/h
807 23-05-2010 17:26:01 29.5 C 5.9 g/m*3 29.5 C 0 km/h
808 23-05-2010 17:38:01 29.2 C 6.1 g/m*3 29.2 C 0 km/h
809 23-05-2010 17:50:01 29.2 C 6.1 g/m*3 29.2 C 0 km/h
810 23-05-2010 18:02:01 28.8 C 6.53 g/m*3 28.8 C 0 km/h
811 23-05-2010 18:14:01 29.5 C 6.49 g/m*3 29.5 C 0 km/h
812 23-05-2010 18:26:02 28.6 C 6.74 g/m*3 28.6 C 0 km/h
813 23-05-2010 18:38:01 28.4 C 6.39 g/m*3 28.4 C 0 km/h
814 23-05-2010 18:50:02 28.8 C 6.82 g/m*3 28.8 C 0 km/h
815 23-05-2010 19:02:01 29.8 C 6.6 g/m*3 29.8 C 0 km/h
816 23-05-2010 19:14:01 27.9 C 6.49 g/m*3 27.9 C 0 km/h
817 23-05-2010 19:26:02 28.1 C 6.84 g/m*3 28.1 C 0 km/h
818 23-05-2010 19:38:01 27.4 C 6.84 g/m*3 27.4 C 0 km/h
819 23-05-2010 19:50:02 27.4 C 7.1 g/m*3 27.4 C 0 km/h
820 23-05-2010 20:02:01 27.1 C 7.25 g/m*3 27.1 C 0 km/h
821 23-05-2010 20:14:01 26.4 C 7.47 g/m*3 26.4 C 0 km/h
822 23-05-2010 20:26:01 27.2 C 7.29 g/m*3 27.2 C 0 km/h
823 23-05-2010 20:38:01 26.3 C 7.43 g/m*3 26.3 C 0 km/h
824 23-05-2010 20:50:01 25.4 C 7.3 g/m*3 25.4 C 0 km/h
825 23-05-2010 21:02:01 24.5 C 7.83 g/m*3 24.5 C 0 km/h
Sensor: Nr:Datum:Temp:Abs-Feuchte:Windchill:Wind:
Aussen-T/F 826 23-05-2010 21:14:01 24.1 C 7.66 g/m*3 24.1 C 0 km/h
827 23-05-2010 21:26:01 23.4 C 7.57 g/m*3 23.4 C 0 km/h
828 23-05-2010 21:38:02 23.1 C 7.86 g/m*3 23.1 C 0 km/h
829 23-05-2010 21:50:01 22.6 C 8.04 g/m*3 22.6 C 0 km/h
830 23-05-2010 22:02:02 22.2 C 8.05 g/m*3 22.2 C 0 km/h
831 23-05-2010 22:14:02 21.7 C 8.39 g/m*3 21.7 C 0 km/h
832 23-05-2010 22:26:01 21.3 C 8.57 g/m*3 21.3 C 0 km/h
833 23-05-2010 22:38:02 20.9 C 8.56 g/m*3 20.9 C 0 km/h
834 23-05-2010 22:51:05 20.7 C 8.82 g/m*3 20.7 C 0 km/h
835 23-05-2010 23:03:05 20.4 C 8.85 g/m*3 20.4 C 0 km/h
836 23-05-2010 23:15:05 20 C 8.81 g/m*3 20 C 0 km/h
837 23-05-2010 23:27:05 19.6 C 8.95 g/m*3 19.6 C 0 km/h
838 23-05-2010 23:39:05 19.2 C 8.9 g/m*3 19.2 C 0 km/h
839 23-05-2010 23:51:05 18.8 C 9.18 g/m*3 18.8 C 0 km/h

Legende:
   Min
   Max


Maximal/Minimal-Werte vom 17.05.2010 - 23.05.2010

Sensor Min Max Avg
Temp
(Aussen-T/F)
5.7 °C
18-05-2010  03:22:04
30.2 °C
23-05-2010  17:02:01
14.31 °C
Abs-Feuchte
(Aussen-T/F)
3.05 g/m*3
18-05-2010  16:34:01
10.05 g/m*3
17-05-2010  16:09:01
6.65 g/m*3
Windchill
(Aussen-T/F)
5.7 C
18-05-2010  03:22:04
30.2 C
23-05-2010  17:02:01
14.29 C

Die Daten stammen von einer Davis Vantage Pro 2 Wetter-Station und werden unter Linux mit der Software wview2wettercgi und aufbereitet. Alle Angaben erfolgen ohne Gewähr für ihre Vollständigkeit oder Richtigkeit.
Kontakt: Rainer Krienke krienke@uni-koblenz.de . Meine Webseiten an der Uni Koblenz oder privat.
Version: $Revision: 0.78 $